This is the latest recevied weather packets stored in our database for station/object VA3WWD-2. If no packets are shown the sender has not sent any weather packets the latest 10 day(s).
| Time | Temp. | Humidity | Pressure | Rain* | Wind** | Luminosity | Snow |
|---|---|---|---|---|---|---|---|
| 1777830978 | 11.11° C | 30% | - | 0 mm | 0 m/s | - | - |
| 1777830677 | 11.11° C | 30% | - | 0 mm | 0 m/s | - | - |
| 1777830379 | 11.11° C | 30% | - | 0 mm | 0 m/s | - | - |
| 1777830081 | 12.22° C | 30% | - | 0 mm | 0 m/s | - | - |
| 1777829780 | 11.67° C | 28% | - | 0 mm | 0 m/s | - | - |
| 1777829482 | 11.67° C | 28% | - | 0 mm | 0 m/s | - | - |
| 1777828883 | 12.78° C | 28% | - | 0 mm | 0 m/s | - | - |
| 1777828585 | 11.67° C | 31% | - | 0 mm | 0 m/s | - | - |
| 1777828287 | 12.78° C | 27% | - | 0 mm | 0 m/s | - | - |
| 1777827688 | 12.78° C | 25% | - | 0 mm | 0 m/s | - | - |
| 1777827390 | 12.78° C | 24% | - | 0 mm | 0 m/s | - | - |
| 1777826791 | 12.22° C | 25% | - | 0 mm | 0 m/s | - | - |
| 1777826192 | 11.11° C | 27% | - | 0 mm | 0 m/s | - | - |
| 1777824698 | 11.67° C | 25% | - | 0 mm | 0 m/s | - | - |
| 1777824397 | 10° C | 28% | - | 0 mm | 0 m/s | - | - |
| 1777824099 | 10° C | 26% | - | 0 mm | 0 m/s | - | - |
| 1777823801 | 11.11° C | 24% | - | 0 mm | 0 m/s | - | - |
| 1777823500 | 10° C | 26% | - | 0 mm | 0 m/s | - | - |
| 1777822904 | 10° C | 26% | - | 0 mm | 0 m/s | - | - |
| 1777822603 | 10° C | 25% | - | 0 mm | 0 m/s | - | - |
| 1777822305 | 9.44° C | 26% | - | 0 mm | 0 m/s | - | - |
| 1777821706 | 8.89° C | 27% | - | 0 mm | 0 m/s | - | - |
| 1777821408 | 8.89° C | 25% | - | 0 mm | 0 m/s | - | - |
| 1777821110 | 9.44° C | 27% | - | 0 mm | 0 m/s | - | - |
| 1777820809 | 8.33° C | 30% | - | 0 mm | 0 m/s | - | - |
* Rain latest hour (hover to see other rain measurements)
** Current wind speed in m/s (hover to see current wind gust speed)